createdAt,value
2023-06-10T00:04:13.178Z,18.03
2023-06-10T00:09:12.676Z,17.9
2023-06-10T00:14:12.177Z,17.75
2023-06-10T00:19:09.911Z,17.61
2023-06-10T00:24:10.169Z,17.26
2023-06-10T00:29:09.727Z,17.14
2023-06-10T00:34:09.535Z,17.12
2023-06-10T00:39:08.175Z,17.15
2023-06-10T00:44:08.054Z,17.16
2023-06-10T00:49:07.504Z,17.18
2023-06-10T00:54:07.733Z,17.2
2023-06-10T00:58:54.432Z,17.1
2023-06-10T01:03:51.425Z,16.98
2023-06-10T01:08:51.699Z,16.83
2023-06-10T01:13:51.467Z,16.48
2023-06-10T01:18:50.770Z,15.82
2023-06-10T01:23:49.518Z,15.56
2023-06-10T01:28:48.840Z,15.57
2023-06-10T01:33:49.333Z,15.55
2023-06-10T01:38:47.428Z,15.5
2023-06-10T01:43:47.391Z,15.87
2023-06-10T01:48:46.894Z,16.15
2023-06-10T01:53:47.100Z,16.29
2023-06-10T01:58:47.630Z,16.43
2023-06-10T02:03:44.659Z,16.51
2023-06-10T02:08:44.791Z,16.49
2023-06-10T02:13:44.743Z,16.23
2023-06-10T02:18:44.413Z,15.96
2023-06-10T02:23:42.063Z,15.88
2023-06-10T02:28:42.168Z,15.9
2023-06-10T02:33:41.816Z,15.63
2023-06-10T02:38:41.984Z,15.53
2023-06-10T02:43:40.514Z,15.44
2023-06-10T02:48:40.356Z,15.53
2023-06-10T02:53:39.885Z,15.7
2023-06-10T02:58:39.613Z,15.76
2023-06-10T03:00:45.294Z,15.78
2023-06-10T03:05:12.470Z,15.8
2023-06-10T03:10:02.374Z,15.83
2023-06-10T03:15:13.093Z,15.85
2023-06-10T03:20:09.189Z,15.77
2023-06-10T03:25:09.404Z,15.65
2023-06-10T03:30:08.780Z,15.51
2023-06-10T03:35:07.090Z,15.42
2023-06-10T03:40:06.825Z,15.38
2023-06-10T03:45:06.778Z,15.44
2023-06-10T03:50:05.589Z,15.42
2023-06-10T03:54:54.995Z,15.55
2023-06-10T03:59:06.836Z,15.7
2023-06-10T04:04:07.668Z,15.65
2023-06-10T04:08:53.651Z,15.52
2023-06-10T04:13:54.031Z,15.64
2023-06-10T04:18:54.027Z,15.74
2023-06-10T04:23:53.486Z,15.84
2023-06-10T04:28:51.274Z,15.9
2023-06-10T04:33:51.179Z,16.07
2023-06-10T04:38:51.386Z,16.29
2023-06-10T04:43:52.138Z,16.5
2023-06-10T04:48:49.067Z,16.7
2023-06-10T04:53:49.550Z,16.94
2023-06-10T04:58:49.384Z,17.2
2023-06-10T05:03:48.871Z,17.29
2023-06-10T05:08:46.907Z,17.61
2023-06-10T05:13:47.274Z,17.77
2023-06-10T05:18:47.168Z,17.91
2023-06-10T05:23:47.427Z,18.08
2023-06-10T05:28:45.828Z,18.29
2023-06-10T05:33:46.345Z,18.6
2023-06-10T05:38:46.058Z,18.87
2023-06-10T05:43:45.618Z,19.01
2023-06-10T05:48:46.298Z,19.2
2023-06-10T05:53:43.221Z,19.5
2023-06-10T05:58:43.468Z,19.57
2023-06-10T06:03:43.438Z,19.79
2023-06-10T06:08:42.730Z,20.04
2023-06-10T06:13:40.413Z,20.58
2023-06-10T06:18:39.863Z,20.84
2023-06-10T06:23:40.088Z,21.18
2023-06-10T06:28:40.690Z,21.51
2023-06-10T06:33:37.453Z,21.77
2023-06-10T06:38:36.773Z,22.46
2023-06-10T06:43:36.632Z,22.62
2023-06-10T06:48:36.192Z,22.44
2023-06-10T06:53:33.777Z,22.26
2023-06-10T06:58:33.963Z,22.29
2023-06-10T07:05:08.446Z,22.59
2023-06-10T07:09:53.431Z,22.95
2023-06-10T07:14:53.784Z,22.84
2023-06-10T07:19:53.520Z,22.81
2023-06-10T07:24:53.095Z,23.3
2023-06-10T07:34:51.039Z,23.39
2023-06-10T07:39:50.979Z,23.38
2023-06-10T07:44:51.282Z,23.53
2023-06-10T07:49:49.664Z,24
2023-06-10T07:55:51.654Z,24.09
2023-06-10T07:59:13.149Z,24.46
2023-06-10T08:04:12.818Z,24.8
2023-06-10T08:09:13.036Z,24.38
2023-06-10T08:14:13.020Z,24.46
2023-06-10T08:19:13.541Z,24.79
2023-06-10T08:24:10.532Z,25.07
2023-06-10T08:29:09.791Z,24.87
2023-06-10T08:34:09.810Z,25.13
2023-06-10T08:39:09.298Z,25.44
2023-06-10T08:44:07.162Z,25.44
2023-06-10T08:49:07.319Z,25.78
2023-06-10T08:54:07.153Z,25.94
2023-06-10T08:58:53.520Z,25.85
2023-06-10T09:03:52.250Z,25.77
2023-06-10T09:08:52.381Z,26.02
2023-06-10T09:13:52.013Z,25.94
2023-06-10T09:18:52.132Z,25.74
2023-06-10T09:23:53.046Z,25.92
2023-06-10T09:28:49.779Z,25.64
2023-06-10T09:33:49.469Z,25.87
2023-06-10T09:38:50.073Z,25.82
2023-06-10T09:43:48.707Z,26.11
2023-06-10T09:48:49.014Z,26.38
2023-06-10T09:53:48.049Z,26.23
2023-06-10T09:58:48.365Z,26.46
2023-06-10T10:03:49.111Z,26.53
2023-06-10T10:08:45.717Z,26.96
2023-06-10T10:13:45.226Z,27
2023-06-10T10:18:45.194Z,27.52
2023-06-10T10:23:44.717Z,27.76
2023-06-10T10:28:42.581Z,27.52
2023-06-10T10:33:42.696Z,27.22
2023-06-10T10:38:42.513Z,27.36
2023-06-10T10:43:41.743Z,27.71
2023-06-10T10:48:40.339Z,27.89
2023-06-10T10:53:40.503Z,28.26
2023-06-10T10:58:39.942Z,28.17
2023-06-10T11:03:40.085Z,28.1
2023-06-10T11:08:37.805Z,28.32
2023-06-10T11:13:37.952Z,28.49
2023-06-10T11:18:37.711Z,28.51
2023-06-10T11:23:38.194Z,28.55
2023-06-10T11:28:37.681Z,28.53
2023-06-10T11:33:37.838Z,28.14
2023-06-10T11:38:37.492Z,27.95
2023-06-10T11:43:37.866Z,27.98
2023-06-10T11:48:38.630Z,27.99
2023-06-10T11:53:34.247Z,28.76
2023-06-10T11:58:34.179Z,29.04
2023-06-10T12:05:08.580Z,28.66
2023-06-10T12:09:54.734Z,28.65
2023-06-10T12:14:54.717Z,28.6
2023-06-10T12:19:54.722Z,28.71
2023-06-10T12:24:55.877Z,28.98
2023-06-10T12:29:51.811Z,29.23
2023-06-10T12:34:51.529Z,29.37
2023-06-10T12:39:51.733Z,29.94
2023-06-10T12:44:50.715Z,29.69
2023-06-10T12:49:50.963Z,29.62
2023-06-10T12:54:50.683Z,29.85
2023-06-10T12:59:12.455Z,30.34
2023-06-10T13:04:13.798Z,30.32
2023-06-10T13:09:09.773Z,29.94
2023-06-10T13:14:09.445Z,30.02
2023-06-10T13:19:09.662Z,30.38
2023-06-10T13:24:09.681Z,29.78
2023-06-10T13:29:06.907Z,29.83
2023-06-10T13:34:06.154Z,29.77
2023-06-10T13:39:06.377Z,29.85
2023-06-10T13:44:05.783Z,30.12
2023-06-10T13:49:04.906Z,29.75
2023-06-10T13:54:05.235Z,29.78
2023-06-10T13:58:51.253Z,29.91
2023-06-10T14:03:51.765Z,30.48
2023-06-10T14:08:52.175Z,30.05
2023-06-10T14:13:49.460Z,29.9
2023-06-10T14:18:48.848Z,29.72
2023-06-10T14:23:48.935Z,29.81
2023-06-10T14:28:48.262Z,29.77
2023-06-10T14:33:47.976Z,29.85
2023-06-10T14:38:48.616Z,30.07
2023-06-10T14:43:48.129Z,30.13
2023-06-10T14:48:48.334Z,29.81
2023-06-10T14:53:45.178Z,29.63
2023-06-10T14:58:44.570Z,30.06
2023-06-10T15:03:44.255Z,29.85
2023-06-10T15:08:44.539Z,30.06
2023-06-10T15:13:44.063Z,30.32
2023-06-10T15:18:43.988Z,30.22
2023-06-10T15:23:44.313Z,30.11
2023-06-10T15:28:43.913Z,30.24
2023-06-10T15:33:47.528Z,30.3
2023-06-10T15:38:41.003Z,30.16
2023-06-10T15:43:40.590Z,30.24
2023-06-10T15:48:40.412Z,30.13
2023-06-10T15:53:40.581Z,30
2023-06-10T15:58:40.287Z,29.94
2023-06-10T16:00:46.520Z,30.01
2023-06-10T16:05:03.817Z,29.96
2023-06-10T16:10:04.715Z,30.07
2023-06-10T16:15:11.648Z,30.04
2023-06-10T16:20:11.942Z,30.34
2023-06-10T16:25:12.100Z,30.25
2023-06-10T16:30:12.304Z,29.95
2023-06-10T16:35:12.837Z,29.67
2023-06-10T16:40:13.061Z,29.57
2023-06-10T16:45:11.789Z,29.7
2023-06-10T16:50:11.440Z,29.95
2023-06-10T16:55:11.453Z,29.63
2023-06-10T16:59:32.749Z,29.57
2023-06-10T17:04:32.443Z,29.51
2023-06-10T17:09:32.702Z,29.67
2023-06-10T17:14:32.499Z,29.92
2023-06-10T17:19:32.639Z,29.69
2023-06-10T17:24:29.653Z,29.57
2023-06-10T17:29:28.895Z,29.36
2023-06-10T17:34:28.623Z,29.41
2023-06-10T17:39:29.600Z,29.5
2023-06-10T17:44:30.349Z,29.4
2023-06-10T17:49:32.926Z,29.36
2023-06-10T17:54:29.672Z,29.38
2023-06-10T17:59:10.291Z,29.11
2023-06-10T18:04:10.443Z,28.98
2023-06-10T18:09:12.495Z,28.76
2023-06-10T18:14:09.633Z,28.75
2023-06-10T18:19:09.116Z,28.64
2023-06-10T18:24:08.931Z,28.48
2023-06-10T18:29:09.219Z,28.34
2023-06-10T18:34:09.028Z,28.13
2023-06-10T18:39:08.819Z,27.88
2023-06-10T18:44:06.063Z,27.6
2023-06-10T18:49:05.399Z,27.34
2023-06-10T18:54:05.024Z,27.12
2023-06-10T18:58:49.256Z,26.88
2023-06-10T19:03:48.773Z,26.64
2023-06-10T19:08:48.594Z,26.34
2023-06-10T19:13:48.485Z,26.07
2023-06-10T19:18:48.534Z,25.82
2023-06-10T19:23:45.603Z,25.63
2023-06-10T19:28:44.821Z,25.4
2023-06-10T19:33:44.689Z,25.22
2023-06-10T19:38:44.564Z,25.03
2023-06-10T19:43:44.015Z,24.86
2023-06-10T19:48:43.862Z,24.69
2023-06-10T19:53:44.110Z,24.53
2023-06-10T19:58:43.789Z,24.38
2023-06-10T20:03:45.173Z,24.24
2023-06-10T20:08:41.002Z,24.13
2023-06-10T20:13:40.518Z,23.98
2023-06-10T20:18:40.231Z,23.86
2023-06-10T20:23:40.525Z,23.72
2023-06-10T20:28:40.420Z,23.61
2023-06-10T20:33:40.302Z,23.49
2023-06-10T20:38:39.900Z,23.41
2023-06-10T20:43:39.361Z,23.3
2023-06-10T20:53:38.226Z,23.18
2023-06-10T20:58:37.952Z,23.09
2023-06-10T21:00:44.103Z,23.07
2023-06-10T21:05:11.529Z,23.01
2023-06-10T21:10:11.508Z,23.04
2023-06-10T21:15:11.610Z,23.07
2023-06-10T21:20:08.243Z,23
2023-06-10T21:25:08.846Z,22.98
2023-06-10T21:30:08.452Z,22.92
2023-06-10T21:35:09.318Z,22.88
2023-06-10T21:40:08.952Z,22.78
2023-06-10T21:45:09.946Z,22.69
2023-06-10T21:50:10.162Z,22.58
2023-06-10T21:55:07.397Z,22.58
2023-06-10T21:59:28.449Z,22.5
2023-06-10T22:04:28.552Z,22.46
2023-06-10T22:09:28.315Z,22.41
2023-06-10T22:14:27.996Z,22.34
2023-06-10T22:19:28.509Z,22.23
2023-06-10T22:24:37.284Z,22.15
2023-06-10T22:29:26.120Z,22.03
2023-06-10T22:34:25.441Z,22.01
2023-06-10T22:39:25.348Z,21.91
2023-06-10T22:44:25.427Z,21.84
2023-06-10T22:49:25.199Z,21.78
2023-06-10T22:54:24.973Z,21.68
2023-06-10T22:59:07.442Z,21.57
2023-06-10T23:09:07.985Z,21.38
2023-06-10T23:14:04.091Z,21.3
2023-06-10T23:19:03.896Z,21.25
2023-06-10T23:24:03.446Z,21.22
2023-06-10T23:29:04.030Z,21.13
2023-06-10T23:34:03.582Z,21.09
2023-06-10T23:39:03.769Z,21.01
2023-06-10T23:44:02.991Z,20.9
2023-06-10T23:49:03.140Z,20.8
2023-06-10T23:54:12.165Z,20.71
2023-06-10T23:58:44.588Z,20.62
